sensor_id;sensor_type;location;lat;lon;timestamp;P1;durP1;ratioP1;P2;durP2;ratioP2
17235;SDS011;8734;59.272;17.780;2024-02-21T00:00:57;6.50;;;3.40;;
17235;SDS011;8734;59.272;17.780;2024-02-21T00:03:25;5.57;;;3.17;;
17235;SDS011;8734;59.272;17.780;2024-02-21T00:05:55;5.10;;;2.53;;
17235;SDS011;8734;59.272;17.780;2024-02-21T00:08:24;6.40;;;3.37;;
17235;SDS011;8734;59.272;17.780;2024-02-21T00:10:52;6.90;;;3.37;;
17235;SDS011;8734;59.272;17.780;2024-02-21T00:13:21;6.07;;;3.23;;
17235;SDS011;8734;59.272;17.780;2024-02-21T00:15:49;8.97;;;3.07;;
17235;SDS011;8734;59.272;17.780;2024-02-21T00:18:17;8.33;;;3.20;;
17235;SDS011;8734;59.272;17.780;2024-02-21T00:20:45;6.07;;;3.63;;
17235;SDS011;8734;59.272;17.780;2024-02-21T00:23:15;2.87;;;1.70;;
17235;SDS011;8734;59.272;17.780;2024-02-21T00:25:43;6.30;;;3.37;;
17235;SDS011;8734;59.272;17.780;2024-02-21T00:28:12;8.27;;;4.27;;
17235;SDS011;8734;59.272;17.780;2024-02-21T00:30:40;5.83;;;2.93;;
17235;SDS011;8734;59.272;17.780;2024-02-21T00:33:08;6.70;;;2.50;;
17235;SDS011;8734;59.272;17.780;2024-02-21T00:35:37;7.83;;;3.53;;
17235;SDS011;8734;59.272;17.780;2024-02-21T00:38:05;7.37;;;3.37;;
17235;SDS011;8734;59.272;17.780;2024-02-21T00:40:35;8.03;;;3.93;;
17235;SDS011;8734;59.272;17.780;2024-02-21T00:43:03;9.27;;;4.37;;
17235;SDS011;8734;59.272;17.780;2024-02-21T00:45:31;10.80;;;4.03;;
17235;SDS011;8734;59.272;17.780;2024-02-21T00:47:59;6.97;;;3.30;;
17235;SDS011;8734;59.272;17.780;2024-02-21T00:50:28;8.90;;;4.03;;
17235;SDS011;8734;59.272;17.780;2024-02-21T00:52:56;8.90;;;3.57;;
17235;SDS011;8734;59.272;17.780;2024-02-21T00:55:24;9.90;;;4.20;;
17235;SDS011;8734;59.272;17.780;2024-02-21T00:57:54;9.10;;;4.50;;
17235;SDS011;8734;59.272;17.780;2024-02-21T01:00:22;10.90;;;4.60;;
17235;SDS011;8734;59.272;17.780;2024-02-21T01:02:50;12.23;;;5.10;;
17235;SDS011;8734;59.272;17.780;2024-02-21T01:05:19;9.87;;;4.10;;
17235;SDS011;8734;59.272;17.780;2024-02-21T01:07:49;14.20;;;5.17;;
17235;SDS011;8734;59.272;17.780;2024-02-21T01:10:17;11.20;;;4.93;;
17235;SDS011;8734;59.272;17.780;2024-02-21T01:12:45;19.03;;;5.53;;
17235;SDS011;8734;59.272;17.780;2024-02-21T01:15:15;14.63;;;5.53;;
17235;SDS011;8734;59.272;17.780;2024-02-21T01:17:43;12.93;;;5.33;;
17235;SDS011;8734;59.272;17.780;2024-02-21T01:20:11;14.17;;;6.03;;
17235;SDS011;8734;59.272;17.780;2024-02-21T01:22:40;18.23;;;5.73;;
17235;SDS011;8734;59.272;17.780;2024-02-21T01:25:08;28.80;;;6.17;;
17235;SDS011;8734;59.272;17.780;2024-02-21T01:27:36;19.87;;;6.47;;
17235;SDS011;8734;59.272;17.780;2024-02-21T01:30:05;12.73;;;4.73;;
17235;SDS011;8734;59.272;17.780;2024-02-21T01:32:35;14.77;;;5.37;;
17235;SDS011;8734;59.272;17.780;2024-02-21T01:35:04;23.03;;;5.97;;
17235;SDS011;8734;59.272;17.780;2024-02-21T01:37:32;24.63;;;6.77;;
17235;SDS011;8734;59.272;17.780;2024-02-21T01:40:01;26.10;;;7.10;;
17235;SDS011;8734;59.272;17.780;2024-02-21T01:42:30;26.10;;;7.60;;
17235;SDS011;8734;59.272;17.780;2024-02-21T01:44:58;25.20;;;7.13;;
17235;SDS011;8734;59.272;17.780;2024-02-21T01:47:26;20.00;;;7.20;;
17235;SDS011;8734;59.272;17.780;2024-02-21T01:49:56;18.93;;;6.20;;
17235;SDS011;8734;59.272;17.780;2024-02-21T01:52:24;15.33;;;5.87;;
17235;SDS011;8734;59.272;17.780;2024-02-21T01:54:53;22.77;;;6.70;;
17235;SDS011;8734;59.272;17.780;2024-02-21T01:57:21;21.83;;;6.63;;
17235;SDS011;8734;59.272;17.780;2024-02-21T01:59:50;24.07;;;7.33;;
17235;SDS011;8734;59.272;17.780;2024-02-21T02:02:18;26.37;;;7.30;;
17235;SDS011;8734;59.272;17.780;2024-02-21T02:04:47;22.80;;;7.77;;
17235;SDS011;8734;59.272;17.780;2024-02-21T02:07:17;21.47;;;7.90;;
17235;SDS011;8734;59.272;17.780;2024-02-21T02:09:46;19.63;;;7.60;;
17235;SDS011;8734;59.272;17.780;2024-02-21T02:12:14;17.40;;;6.80;;
17235;SDS011;8734;59.272;17.780;2024-02-21T02:14:42;17.63;;;6.47;;
17235;SDS011;8734;59.272;17.780;2024-02-21T02:17:11;20.30;;;6.30;;
17235;SDS011;8734;59.272;17.780;2024-02-21T02:19:39;11.27;;;4.20;;
17235;SDS011;8734;59.272;17.780;2024-02-21T02:22:09;19.33;;;6.67;;
17235;SDS011;8734;59.272;17.780;2024-02-21T02:24:46;17.23;;;6.67;;
17235;SDS011;8734;59.272;17.780;2024-02-21T02:27:14;12.13;;;5.30;;
17235;SDS011;8734;59.272;17.780;2024-02-21T02:29:42;12.63;;;4.57;;
17235;SDS011;8734;59.272;17.780;2024-02-21T02:32:11;13.10;;;5.50;;
17235;SDS011;8734;59.272;17.780;2024-02-21T02:34:39;10.83;;;5.00;;
17235;SDS011;8734;59.272;17.780;2024-02-21T02:37:07;13.73;;;5.73;;
17235;SDS011;8734;59.272;17.780;2024-02-21T02:39:36;6.63;;;2.80;;
17235;SDS011;8734;59.272;17.780;2024-02-21T02:42:06;12.87;;;4.60;;
17235;SDS011;8734;59.272;17.780;2024-02-21T02:44:35;12.73;;;4.83;;
17235;SDS011;8734;59.272;17.780;2024-02-21T02:47:03;10.27;;;4.63;;
17235;SDS011;8734;59.272;17.780;2024-02-21T02:49:32;8.40;;;3.20;;
17235;SDS011;8734;59.272;17.780;2024-02-21T02:52:00;12.13;;;4.50;;
17235;SDS011;8734;59.272;17.780;2024-02-21T02:54:28;10.00;;;4.40;;
17235;SDS011;8734;59.272;17.780;2024-02-21T02:56:56;9.93;;;3.77;;
17235;SDS011;8734;59.272;17.780;2024-02-21T02:59:26;8.97;;;3.77;;
17235;SDS011;8734;59.272;17.780;2024-02-21T03:01:54;10.47;;;3.37;;
17235;SDS011;8734;59.272;17.780;2024-02-21T03:04:23;10.73;;;3.33;;
17235;SDS011;8734;59.272;17.780;2024-02-21T03:06:51;5.23;;;2.40;;
17235;SDS011;8734;59.272;17.780;2024-02-21T03:09:21;5.13;;;2.30;;
17235;SDS011;8734;59.272;17.780;2024-02-21T03:11:50;9.20;;;2.77;;
17235;SDS011;8734;59.272;17.780;2024-02-21T03:14:18;4.93;;;2.87;;
17235;SDS011;8734;59.272;17.780;2024-02-21T03:16:48;5.43;;;2.63;;
17235;SDS011;8734;59.272;17.780;2024-02-21T03:19:19;4.57;;;2.50;;
17235;SDS011;8734;59.272;17.780;2024-02-21T03:21:47;11.30;;;3.47;;
17235;SDS011;8734;59.272;17.780;2024-02-21T03:24:16;8.87;;;3.40;;
17235;SDS011;8734;59.272;17.780;2024-02-21T03:26:45;8.23;;;3.07;;
17235;SDS011;8734;59.272;17.780;2024-02-21T03:29:14;10.43;;;3.27;;
17235;SDS011;8734;59.272;17.780;2024-02-21T03:31:43;12.43;;;3.10;;
17235;SDS011;8734;59.272;17.780;2024-02-21T03:34:12;7.97;;;3.37;;
17235;SDS011;8734;59.272;17.780;2024-02-21T03:36:41;9.43;;;2.87;;
17235;SDS011;8734;59.272;17.780;2024-02-21T03:39:09;4.33;;;2.60;;
17235;SDS011;8734;59.272;17.780;2024-02-21T03:41:37;11.73;;;3.23;;
17235;SDS011;8734;59.272;17.780;2024-02-21T03:44:05;6.60;;;2.50;;
17235;SDS011;8734;59.272;17.780;2024-02-21T03:46:34;5.77;;;2.53;;
17235;SDS011;8734;59.272;17.780;2024-02-21T03:49:02;6.33;;;3.33;;
17235;SDS011;8734;59.272;17.780;2024-02-21T03:51:31;7.50;;;2.80;;
17235;SDS011;8734;59.272;17.780;2024-02-21T03:54:00;7.30;;;2.87;;
17235;SDS011;8734;59.272;17.780;2024-02-21T03:56:28;7.20;;;2.70;;
17235;SDS011;8734;59.272;17.780;2024-02-21T03:58:56;7.07;;;2.63;;
17235;SDS011;8734;59.272;17.780;2024-02-21T04:01:24;13.93;;;2.93;;
17235;SDS011;8734;59.272;17.780;2024-02-21T04:03:53;9.63;;;2.80;;
17235;SDS011;8734;59.272;17.780;2024-02-21T04:06:21;10.43;;;3.07;;
17235;SDS011;8734;59.272;17.780;2024-02-21T04:08:50;7.17;;;2.00;;
17235;SDS011;8734;59.272;17.780;2024-02-21T04:11:19;9.23;;;3.57;;
17235;SDS011;8734;59.272;17.780;2024-02-21T04:13:47;5.03;;;2.40;;
17235;SDS011;8734;59.272;17.780;2024-02-21T04:16:16;5.87;;;2.20;;
17235;SDS011;8734;59.272;17.780;2024-02-21T04:18:45;5.30;;;2.03;;
17235;SDS011;8734;59.272;17.780;2024-02-21T04:21:14;6.87;;;2.03;;
17235;SDS011;8734;59.272;17.780;2024-02-21T04:23:44;11.90;;;3.00;;
17235;SDS011;8734;59.272;17.780;2024-02-21T04:26:13;9.50;;;2.77;;
17235;SDS011;8734;59.272;17.780;2024-02-21T04:28:41;5.00;;;2.10;;
17235;SDS011;8734;59.272;17.780;2024-02-21T04:31:12;7.00;;;2.23;;
17235;SDS011;8734;59.272;17.780;2024-02-21T04:33:41;7.87;;;1.53;;
17235;SDS011;8734;59.272;17.780;2024-02-21T04:36:09;4.97;;;2.37;;
17235;SDS011;8734;59.272;17.780;2024-02-21T04:38:38;4.40;;;2.03;;
17235;SDS011;8734;59.272;17.780;2024-02-21T04:41:07;7.60;;;2.33;;
17235;SDS011;8734;59.272;17.780;2024-02-21T04:43:37;8.43;;;2.70;;
17235;SDS011;8734;59.272;17.780;2024-02-21T04:46:05;5.37;;;2.97;;
17235;SDS011;8734;59.272;17.780;2024-02-21T04:48:33;5.47;;;2.70;;
17235;SDS011;8734;59.272;17.780;2024-02-21T04:51:01;4.97;;;2.27;;
17235;SDS011;8734;59.272;17.780;2024-02-21T04:53:29;14.47;;;3.47;;
17235;SDS011;8734;59.272;17.780;2024-02-21T04:55:58;6.00;;;2.33;;
17235;SDS011;8734;59.272;17.780;2024-02-21T04:58:26;8.50;;;3.13;;
17235;SDS011;8734;59.272;17.780;2024-02-21T05:00:56;6.53;;;2.93;;
17235;SDS011;8734;59.272;17.780;2024-02-21T05:03:24;11.50;;;2.60;;
17235;SDS011;8734;59.272;17.780;2024-02-21T05:05:52;7.67;;;2.53;;
17235;SDS011;8734;59.272;17.780;2024-02-21T05:08:21;8.33;;;2.50;;
17235;SDS011;8734;59.272;17.780;2024-02-21T05:10:49;9.60;;;2.30;;
17235;SDS011;8734;59.272;17.780;2024-02-21T05:13:17;11.80;;;3.10;;
17235;SDS011;8734;59.272;17.780;2024-02-21T05:15:45;9.57;;;3.20;;
17235;SDS011;8734;59.272;17.780;2024-02-21T05:18:15;7.30;;;2.30;;
17235;SDS011;8734;59.272;17.780;2024-02-21T05:20:43;10.13;;;2.60;;
17235;SDS011;8734;59.272;17.780;2024-02-21T05:23:11;8.10;;;3.40;;
17235;SDS011;8734;59.272;17.780;2024-02-21T05:25:39;9.00;;;2.90;;
17235;SDS011;8734;59.272;17.780;2024-02-21T05:28:08;4.73;;;2.47;;
17235;SDS011;8734;59.272;17.780;2024-02-21T05:30:36;5.60;;;1.70;;
17235;SDS011;8734;59.272;17.780;2024-02-21T05:33:04;6.77;;;2.67;;
17235;SDS011;8734;59.272;17.780;2024-02-21T05:35:35;8.60;;;3.03;;
17235;SDS011;8734;59.272;17.780;2024-02-21T05:38:03;6.37;;;1.57;;
17235;SDS011;8734;59.272;17.780;2024-02-21T05:40:37;10.37;;;3.50;;
17235;SDS011;8734;59.272;17.780;2024-02-21T05:43:06;9.97;;;3.20;;
17235;SDS011;8734;59.272;17.780;2024-02-21T05:45:35;10.23;;;3.47;;
17235;SDS011;8734;59.272;17.780;2024-02-21T05:48:04;7.70;;;3.43;;
17235;SDS011;8734;59.272;17.780;2024-02-21T05:50:32;9.13;;;2.73;;
17235;SDS011;8734;59.272;17.780;2024-02-21T05:53:03;13.67;;;3.20;;
17235;SDS011;8734;59.272;17.780;2024-02-21T05:55:31;11.37;;;3.77;;
17235;SDS011;8734;59.272;17.780;2024-02-21T05:57:59;12.90;;;3.33;;
17235;SDS011;8734;59.272;17.780;2024-02-21T06:00:28;9.13;;;3.20;;
17235;SDS011;8734;59.272;17.780;2024-02-21T06:02:59;9.30;;;3.57;;
17235;SDS011;8734;59.272;17.780;2024-02-21T06:05:28;12.13;;;3.53;;
17235;SDS011;8734;59.272;17.780;2024-02-21T06:07:59;11.77;;;2.93;;
17235;SDS011;8734;59.272;17.780;2024-02-21T06:10:27;13.47;;;3.50;;
17235;SDS011;8734;59.272;17.780;2024-02-21T06:12:55;13.10;;;3.13;;
17235;SDS011;8734;59.272;17.780;2024-02-21T06:15:23;14.47;;;4.00;;
17235;SDS011;8734;59.272;17.780;2024-02-21T06:17:51;10.63;;;3.60;;
17235;SDS011;8734;59.272;17.780;2024-02-21T06:20:19;14.43;;;4.33;;
17235;SDS011;8734;59.272;17.780;2024-02-21T06:22:48;21.73;;;3.97;;
17235;SDS011;8734;59.272;17.780;2024-02-21T06:25:17;10.50;;;3.87;;
17235;SDS011;8734;59.272;17.780;2024-02-21T06:27:45;10.27;;;4.10;;
17235;SDS011;8734;59.272;17.780;2024-02-21T06:30:14;13.43;;;4.07;;
17235;SDS011;8734;59.272;17.780;2024-02-21T06:32:42;11.63;;;4.20;;
17235;SDS011;8734;59.272;17.780;2024-02-21T06:35:10;14.80;;;4.23;;
17235;SDS011;8734;59.272;17.780;2024-02-21T06:37:38;19.37;;;4.53;;
17235;SDS011;8734;59.272;17.780;2024-02-21T06:40:07;17.07;;;4.27;;
17235;SDS011;8734;59.272;17.780;2024-02-21T06:42:37;18.40;;;4.10;;
17235;SDS011;8734;59.272;17.780;2024-02-21T06:45:05;15.53;;;4.40;;
17235;SDS011;8734;59.272;17.780;2024-02-21T06:47:34;14.43;;;4.37;;
17235;SDS011;8734;59.272;17.780;2024-02-21T06:50:02;15.70;;;4.40;;
17235;SDS011;8734;59.272;17.780;2024-02-21T06:52:31;23.27;;;4.63;;
17235;SDS011;8734;59.272;17.780;2024-02-21T06:54:59;21.93;;;5.33;;
17235;SDS011;8734;59.272;17.780;2024-02-21T06:57:28;17.37;;;5.03;;
17235;SDS011;8734;59.272;17.780;2024-02-21T06:59:57;17.00;;;5.57;;
17235;SDS011;8734;59.272;17.780;2024-02-21T07:02:26;20.77;;;4.77;;
17235;SDS011;8734;59.272;17.780;2024-02-21T07:04:54;13.67;;;4.37;;
17235;SDS011;8734;59.272;17.780;2024-02-21T07:07:22;15.33;;;4.70;;
17235;SDS011;8734;59.272;17.780;2024-02-21T07:09:51;16.50;;;4.87;;
17235;SDS011;8734;59.272;17.780;2024-02-21T07:12:20;20.23;;;4.93;;
17235;SDS011;8734;59.272;17.780;2024-02-21T07:14:48;24.83;;;6.23;;
17235;SDS011;8734;59.272;17.780;2024-02-21T07:17:17;14.37;;;5.80;;
17235;SDS011;8734;59.272;17.780;2024-02-21T07:19:46;19.10;;;5.43;;
17235;SDS011;8734;59.272;17.780;2024-02-21T07:22:14;17.23;;;5.40;;
17235;SDS011;8734;59.272;17.780;2024-02-21T07:24:42;20.90;;;6.07;;
17235;SDS011;8734;59.272;17.780;2024-02-21T07:27:10;16.53;;;6.00;;
17235;SDS011;8734;59.272;17.780;2024-02-21T07:29:40;18.40;;;5.80;;
17235;SDS011;8734;59.272;17.780;2024-02-21T07:32:09;16.40;;;6.00;;
17235;SDS011;8734;59.272;17.780;2024-02-21T07:34:38;26.60;;;6.27;;
17235;SDS011;8734;59.272;17.780;2024-02-21T07:37:07;17.10;;;5.27;;
17235;SDS011;8734;59.272;17.780;2024-02-21T07:39:35;25.53;;;5.50;;
17235;SDS011;8734;59.272;17.780;2024-02-21T07:42:04;21.60;;;6.10;;
17235;SDS011;8734;59.272;17.780;2024-02-21T07:44:33;21.67;;;5.30;;
17235;SDS011;8734;59.272;17.780;2024-02-21T07:47:02;17.10;;;5.10;;
17235;SDS011;8734;59.272;17.780;2024-02-21T07:49:30;25.90;;;6.20;;
17235;SDS011;8734;59.272;17.780;2024-02-21T07:52:01;21.73;;;5.20;;
17235;SDS011;8734;59.272;17.780;2024-02-21T07:54:30;14.80;;;5.20;;
17235;SDS011;8734;59.272;17.780;2024-02-21T07:56:59;27.67;;;6.20;;
17235;SDS011;8734;59.272;17.780;2024-02-21T07:59:27;17.60;;;4.17;;
17235;SDS011;8734;59.272;17.780;2024-02-21T08:01:56;21.43;;;5.20;;
17235;SDS011;8734;59.272;17.780;2024-02-21T08:04:24;18.07;;;4.83;;
17235;SDS011;8734;59.272;17.780;2024-02-21T08:06:52;19.17;;;5.40;;
17235;SDS011;8734;59.272;17.780;2024-02-21T08:09:23;24.03;;;4.93;;
17235;SDS011;8734;59.272;17.780;2024-02-21T08:11:51;18.53;;;5.07;;
17235;SDS011;8734;59.272;17.780;2024-02-21T08:14:19;18.93;;;5.90;;
17235;SDS011;8734;59.272;17.780;2024-02-21T08:16:47;21.33;;;5.40;;
17235;SDS011;8734;59.272;17.780;2024-02-21T08:19:15;24.17;;;5.40;;
17235;SDS011;8734;59.272;17.780;2024-02-21T08:21:44;17.30;;;4.13;;
17235;SDS011;8734;59.272;17.780;2024-02-21T08:24:13;20.27;;;4.60;;
17235;SDS011;8734;59.272;17.780;2024-02-21T08:26:43;15.03;;;4.00;;
17235;SDS011;8734;59.272;17.780;2024-02-21T08:29:12;22.57;;;5.77;;
17235;SDS011;8734;59.272;17.780;2024-02-21T08:31:40;12.00;;;4.60;;
17235;SDS011;8734;59.272;17.780;2024-02-21T08:34:08;20.97;;;5.03;;
17235;SDS011;8734;59.272;17.780;2024-02-21T08:36:37;21.17;;;5.30;;
17235;SDS011;8734;59.272;17.780;2024-02-21T08:39:05;28.90;;;5.80;;
17235;SDS011;8734;59.272;17.780;2024-02-21T08:41:33;9.13;;;2.17;;
17235;SDS011;8734;59.272;17.780;2024-02-21T08:44:23;18.30;;;5.20;;
17235;SDS011;8734;59.272;17.780;2024-02-21T08:46:53;23.23;;;5.80;;
17235;SDS011;8734;59.272;17.780;2024-02-21T08:49:21;20.60;;;4.63;;
17235;SDS011;8734;59.272;17.780;2024-02-21T08:51:51;22.17;;;4.90;;
17235;SDS011;8734;59.272;17.780;2024-02-21T08:54:20;16.23;;;4.70;;
17235;SDS011;8734;59.272;17.780;2024-02-21T08:56:48;21.17;;;4.27;;
17235;SDS011;8734;59.272;17.780;2024-02-21T08:59:16;26.60;;;6.00;;
17235;SDS011;8734;59.272;17.780;2024-02-21T09:01:46;17.27;;;5.57;;
17235;SDS011;8734;59.272;17.780;2024-02-21T09:04:14;27.30;;;5.10;;
17235;SDS011;8734;59.272;17.780;2024-02-21T09:06:43;20.03;;;4.40;;
17235;SDS011;8734;59.272;17.780;2024-02-21T09:09:12;23.53;;;4.97;;
17235;SDS011;8734;59.272;17.780;2024-02-21T09:11:41;17.30;;;4.10;;
17235;SDS011;8734;59.272;17.780;2024-02-21T09:14:09;16.17;;;5.03;;
17235;SDS011;8734;59.272;17.780;2024-02-21T09:16:37;20.07;;;4.13;;
17235;SDS011;8734;59.272;17.780;2024-02-21T09:19:07;21.73;;;4.50;;
17235;SDS011;8734;59.272;17.780;2024-02-21T09:21:37;10.53;;;3.73;;
17235;SDS011;8734;59.272;17.780;2024-02-21T09:24:06;21.07;;;3.80;;
17235;SDS011;8734;59.272;17.780;2024-02-21T09:26:34;15.00;;;4.50;;
17235;SDS011;8734;59.272;17.780;2024-02-21T09:29:02;27.83;;;6.83;;
17235;SDS011;8734;59.272;17.780;2024-02-21T09:31:30;16.70;;;4.43;;
17235;SDS011;8734;59.272;17.780;2024-02-21T09:33:59;11.00;;;3.83;;
17235;SDS011;8734;59.272;17.780;2024-02-21T09:36:28;15.20;;;3.53;;
17235;SDS011;8734;59.272;17.780;2024-02-21T09:38:57;17.80;;;3.47;;
17235;SDS011;8734;59.272;17.780;2024-02-21T09:41:26;17.47;;;4.17;;
17235;SDS011;8734;59.272;17.780;2024-02-21T09:43:54;14.80;;;3.40;;
17235;SDS011;8734;59.272;17.780;2024-02-21T09:46:24;15.30;;;3.67;;
17235;SDS011;8734;59.272;17.780;2024-02-21T09:49:05;12.37;;;3.03;;
17235;SDS011;8734;59.272;17.780;2024-02-21T09:51:45;5.93;;;2.77;;
17235;SDS011;8734;59.272;17.780;2024-02-21T09:54:17;10.27;;;3.17;;
17235;SDS011;8734;59.272;17.780;2024-02-21T09:56:46;14.93;;;3.63;;
17235;SDS011;8734;59.272;17.780;2024-02-21T09:59:15;6.80;;;3.33;;
17235;SDS011;8734;59.272;17.780;2024-02-21T10:01:44;13.80;;;3.47;;
17235;SDS011;8734;59.272;17.780;2024-02-21T10:04:14;12.13;;;3.27;;
17235;SDS011;8734;59.272;17.780;2024-02-21T10:06:42;12.97;;;3.67;;
17235;SDS011;8734;59.272;17.780;2024-02-21T10:09:20;6.80;;;3.33;;
17235;SDS011;8734;59.272;17.780;2024-02-21T10:11:50;15.80;;;2.83;;
17235;SDS011;8734;59.272;17.780;2024-02-21T10:14:19;14.50;;;2.97;;
17235;SDS011;8734;59.272;17.780;2024-02-21T10:16:47;9.93;;;3.60;;
17235;SDS011;8734;59.272;17.780;2024-02-21T10:19:16;7.70;;;2.97;;
17235;SDS011;8734;59.272;17.780;2024-02-21T10:21:59;9.47;;;3.70;;
17235;SDS011;8734;59.272;17.780;2024-02-21T10:24:31;9.93;;;3.03;;
17235;SDS011;8734;59.272;17.780;2024-02-21T10:27:01;12.30;;;3.83;;
17235;SDS011;8734;59.272;17.780;2024-02-21T10:29:30;8.10;;;3.37;;
17235;SDS011;8734;59.272;17.780;2024-02-21T10:32:05;8.93;;;3.93;;
17235;SDS011;8734;59.272;17.780;2024-02-21T10:34:35;10.70;;;3.70;;
17235;SDS011;8734;59.272;17.780;2024-02-21T10:37:05;15.17;;;3.60;;
17235;SDS011;8734;59.272;17.780;2024-02-21T10:39:35;9.33;;;3.20;;
17235;SDS011;8734;59.272;17.780;2024-02-21T10:42:04;10.10;;;3.70;;
17235;SDS011;8734;59.272;17.780;2024-02-21T10:44:36;10.90;;;3.53;;
17235;SDS011;8734;59.272;17.780;2024-02-21T10:47:07;10.87;;;3.47;;
17235;SDS011;8734;59.272;17.780;2024-02-21T10:49:38;8.30;;;2.93;;
17235;SDS011;8734;59.272;17.780;2024-02-21T10:52:09;6.97;;;3.27;;
17235;SDS011;8734;59.272;17.780;2024-02-21T10:54:45;6.07;;;2.90;;
17235;SDS011;8734;59.272;17.780;2024-02-21T10:57:18;9.33;;;3.63;;
17235;SDS011;8734;59.272;17.780;2024-02-21T10:59:49;10.27;;;3.20;;
17235;SDS011;8734;59.272;17.780;2024-02-21T11:02:18;7.77;;;2.50;;
17235;SDS011;8734;59.272;17.780;2024-02-21T11:04:47;5.43;;;2.93;;
17235;SDS011;8734;59.272;17.780;2024-02-21T11:07:17;9.70;;;2.90;;
17235;SDS011;8734;59.272;17.780;2024-02-21T11:09:51;6.67;;;2.67;;
17235;SDS011;8734;59.272;17.780;2024-02-21T11:12:22;11.87;;;2.87;;
17235;SDS011;8734;59.272;17.780;2024-02-21T11:14:52;10.93;;;3.07;;
17235;SDS011;8734;59.272;17.780;2024-02-21T11:17:20;8.47;;;2.97;;
17235;SDS011;8734;59.272;17.780;2024-02-21T11:19:52;6.73;;;3.07;;
17235;SDS011;8734;59.272;17.780;2024-02-21T11:22:21;9.87;;;2.80;;
17235;SDS011;8734;59.272;17.780;2024-02-21T11:24:52;13.60;;;2.80;;
17235;SDS011;8734;59.272;17.780;2024-02-21T11:27:22;9.77;;;3.17;;
17235;SDS011;8734;59.272;17.780;2024-02-21T11:29:54;6.23;;;3.13;;
17235;SDS011;8734;59.272;17.780;2024-02-21T11:32:24;6.00;;;2.80;;
17235;SDS011;8734;59.272;17.780;2024-02-21T11:34:56;6.97;;;3.40;;
17235;SDS011;8734;59.272;17.780;2024-02-21T11:37:29;7.33;;;2.80;;
17235;SDS011;8734;59.272;17.780;2024-02-21T11:40:02;9.40;;;3.63;;
17235;SDS011;8734;59.272;17.780;2024-02-21T11:42:33;12.27;;;3.53;;
17235;SDS011;8734;59.272;17.780;2024-02-21T11:45:03;11.23;;;3.93;;
17235;SDS011;8734;59.272;17.780;2024-02-21T11:47:32;6.33;;;3.13;;
17235;SDS011;8734;59.272;17.780;2024-02-21T11:50:00;6.23;;;3.33;;
17235;SDS011;8734;59.272;17.780;2024-02-21T11:52:30;6.90;;;2.90;;
17235;SDS011;8734;59.272;17.780;2024-02-21T11:54:58;7.73;;;3.33;;
17235;SDS011;8734;59.272;17.780;2024-02-21T11:57:34;8.40;;;3.97;;
17235;SDS011;8734;59.272;17.780;2024-02-21T12:00:14;7.97;;;3.83;;
17235;SDS011;8734;59.272;17.780;2024-02-21T12:02:43;8.47;;;3.63;;
17235;SDS011;8734;59.272;17.780;2024-02-21T12:05:12;11.07;;;3.17;;
17235;SDS011;8734;59.272;17.780;2024-02-21T12:07:42;6.97;;;3.17;;
17235;SDS011;8734;59.272;17.780;2024-02-21T12:10:11;8.67;;;3.30;;
17235;SDS011;8734;59.272;17.780;2024-02-21T12:12:41;9.33;;;2.97;;
17235;SDS011;8734;59.272;17.780;2024-02-21T12:15:09;6.27;;;3.60;;
17235;SDS011;8734;59.272;17.780;2024-02-21T12:17:39;5.67;;;3.43;;
17235;SDS011;8734;59.272;17.780;2024-02-21T12:20:08;8.07;;;3.67;;
17235;SDS011;8734;59.272;17.780;2024-02-21T12:22:38;5.63;;;2.93;;
17235;SDS011;8734;59.272;17.780;2024-02-21T12:25:15;6.43;;;3.43;;
17235;SDS011;8734;59.272;17.780;2024-02-21T12:27:46;6.80;;;3.77;;
17235;SDS011;8734;59.272;17.780;2024-02-21T12:30:16;5.90;;;3.40;;
17235;SDS011;8734;59.272;17.780;2024-02-21T12:32:44;9.20;;;3.77;;
17235;SDS011;8734;59.272;17.780;2024-02-21T12:35:12;8.83;;;4.10;;
17235;SDS011;8734;59.272;17.780;2024-02-21T12:37:40;6.33;;;3.80;;
17235;SDS011;8734;59.272;17.780;2024-02-21T12:40:09;6.23;;;3.50;;
17235;SDS011;8734;59.272;17.780;2024-02-21T12:42:40;8.10;;;4.50;;
17235;SDS011;8734;59.272;17.780;2024-02-21T12:45:10;9.70;;;4.40;;
17235;SDS011;8734;59.272;17.780;2024-02-21T12:47:38;8.13;;;4.27;;
17235;SDS011;8734;59.272;17.780;2024-02-21T12:50:07;7.97;;;3.97;;
17235;SDS011;8734;59.272;17.780;2024-02-21T12:52:36;5.37;;;3.67;;
17235;SDS011;8734;59.272;17.780;2024-02-21T12:55:04;8.17;;;3.93;;
17235;SDS011;8734;59.272;17.780;2024-02-21T12:57:33;10.57;;;4.70;;
17235;SDS011;8734;59.272;17.780;2024-02-21T13:00:01;11.13;;;4.40;;
17235;SDS011;8734;59.272;17.780;2024-02-21T13:02:32;8.60;;;4.20;;
17235;SDS011;8734;59.272;17.780;2024-02-21T13:05:00;6.53;;;4.03;;
17235;SDS011;8734;59.272;17.780;2024-02-21T13:07:28;7.37;;;3.70;;
17235;SDS011;8734;59.272;17.780;2024-02-21T13:09:58;9.80;;;4.50;;
17235;SDS011;8734;59.272;17.780;2024-02-21T13:12:26;8.37;;;3.80;;
17235;SDS011;8734;59.272;17.780;2024-02-21T13:14:56;7.03;;;4.40;;
17235;SDS011;8734;59.272;17.780;2024-02-21T13:17:24;6.50;;;4.00;;
17235;SDS011;8734;59.272;17.780;2024-02-21T13:19:58;9.77;;;4.13;;
17235;SDS011;8734;59.272;17.780;2024-02-21T13:22:27;9.87;;;4.50;;
17235;SDS011;8734;59.272;17.780;2024-02-21T13:24:55;9.53;;;4.53;;
17235;SDS011;8734;59.272;17.780;2024-02-21T13:27:24;11.87;;;4.87;;
17235;SDS011;8734;59.272;17.780;2024-02-21T13:29:52;9.10;;;4.80;;
17235;SDS011;8734;59.272;17.780;2024-02-21T13:32:20;9.00;;;4.80;;
17235;SDS011;8734;59.272;17.780;2024-02-21T13:34:49;11.40;;;4.97;;
17235;SDS011;8734;59.272;17.780;2024-02-21T13:37:20;11.93;;;4.77;;
17235;SDS011;8734;59.272;17.780;2024-02-21T13:39:48;12.47;;;5.37;;
17235;SDS011;8734;59.272;17.780;2024-02-21T13:42:17;11.80;;;5.50;;
17235;SDS011;8734;59.272;17.780;2024-02-21T13:44:45;12.77;;;4.60;;
17235;SDS011;8734;59.272;17.780;2024-02-21T13:47:14;13.60;;;5.77;;
17235;SDS011;8734;59.272;17.780;2024-02-21T13:49:42;11.83;;;5.37;;
17235;SDS011;8734;59.272;17.780;2024-02-21T13:52:11;10.20;;;5.10;;
17235;SDS011;8734;59.272;17.780;2024-02-21T13:54:40;11.10;;;4.53;;
17235;SDS011;8734;59.272;17.780;2024-02-21T13:57:09;15.50;;;5.67;;
17235;SDS011;8734;59.272;17.780;2024-02-21T13:59:37;8.97;;;4.97;;
17235;SDS011;8734;59.272;17.780;2024-02-21T14:02:06;10.43;;;5.17;;
17235;SDS011;8734;59.272;17.780;2024-02-21T14:04:34;13.70;;;5.60;;
17235;SDS011;8734;59.272;17.780;2024-02-21T14:07:03;15.63;;;6.23;;
17235;SDS011;8734;59.272;17.780;2024-02-21T14:09:31;10.07;;;4.70;;
17235;SDS011;8734;59.272;17.780;2024-02-21T14:12:01;16.97;;;8.27;;
17235;SDS011;8734;59.272;17.780;2024-02-21T14:14:34;13.10;;;5.57;;
17235;SDS011;8734;59.272;17.780;2024-02-21T14:17:05;17.03;;;6.17;;
17235;SDS011;8734;59.272;17.780;2024-02-21T14:19:34;14.83;;;6.17;;
17235;SDS011;8734;59.272;17.780;2024-02-21T14:22:02;14.00;;;5.73;;
17235;SDS011;8734;59.272;17.780;2024-02-21T14:24:31;25.67;;;9.80;;
17235;SDS011;8734;59.272;17.780;2024-02-21T14:26:59;17.73;;;6.33;;
17235;SDS011;8734;59.272;17.780;2024-02-21T14:29:29;16.30;;;5.93;;
17235;SDS011;8734;59.272;17.780;2024-02-21T14:31:57;10.73;;;4.80;;
17235;SDS011;8734;59.272;17.780;2024-02-21T14:34:25;15.00;;;4.80;;
17235;SDS011;8734;59.272;17.780;2024-02-21T14:36:53;15.97;;;4.53;;
17235;SDS011;8734;59.272;17.780;2024-02-21T14:39:22;12.87;;;5.10;;
17235;SDS011;8734;59.272;17.780;2024-02-21T14:41:50;13.27;;;5.43;;
17235;SDS011;8734;59.272;17.780;2024-02-21T14:44:18;45.33;;;5.77;;
17235;SDS011;8734;59.272;17.780;2024-02-21T14:46:48;39.60;;;6.10;;
17235;SDS011;8734;59.272;17.780;2024-02-21T14:49:16;29.17;;;5.40;;
17235;SDS011;8734;59.272;17.780;2024-02-21T14:51:47;28.43;;;9.90;;